sensor_id;sensor_type;location;lat;lon;timestamp;P1;durP1;ratioP1;P2;durP2;ratioP2
67819;SDS011;54618;52.018;5.576;2022-11-20T00:00:51;5.97;;;3.58;;
67819;SDS011;54618;52.018;5.576;2022-11-20T00:03:17;5.50;;;3.58;;
67819;SDS011;54618;52.018;5.576;2022-11-20T00:05:43;6.00;;;3.40;;
67819;SDS011;54618;52.018;5.576;2022-11-20T00:08:09;4.93;;;3.50;;
67819;SDS011;54618;52.018;5.576;2022-11-20T00:10:38;7.50;;;3.70;;
67819;SDS011;54618;52.018;5.576;2022-11-20T00:13:04;5.25;;;3.30;;
67819;SDS011;54618;52.018;5.576;2022-11-20T00:15:30;7.32;;;3.80;;
67819;SDS011;54618;52.018;5.576;2022-11-20T00:17:56;6.72;;;3.70;;
67819;SDS011;54618;52.018;5.576;2022-11-20T00:20:21;5.03;;;3.63;;
67819;SDS011;54618;52.018;5.576;2022-11-20T00:22:47;5.53;;;3.63;;
67819;SDS011;54618;52.018;5.576;2022-11-20T00:25:16;7.70;;;3.83;;
67819;SDS011;54618;52.018;5.576;2022-11-20T00:27:41;6.07;;;3.70;;
67819;SDS011;54618;52.018;5.576;2022-11-20T00:30:07;5.22;;;3.60;;
67819;SDS011;54618;52.018;5.576;2022-11-20T00:32:33;6.13;;;3.67;;
67819;SDS011;54618;52.018;5.576;2022-11-20T00:34:59;5.35;;;3.80;;
67819;SDS011;54618;52.018;5.576;2022-11-20T00:37:24;5.72;;;3.60;;
67819;SDS011;54618;52.018;5.576;2022-11-20T00:39:50;6.20;;;3.40;;
67819;SDS011;54618;52.018;5.576;2022-11-20T00:42:15;5.70;;;4.18;;
67819;SDS011;54618;52.018;5.576;2022-11-20T00:44:41;5.68;;;3.97;;
67819;SDS011;54618;52.018;5.576;2022-11-20T00:47:06;6.80;;;3.70;;
67819;SDS011;54618;52.018;5.576;2022-11-20T00:49:32;6.40;;;3.95;;
67819;SDS011;54618;52.018;5.576;2022-11-20T00:51:57;6.72;;;4.13;;
67819;SDS011;54618;52.018;5.576;2022-11-20T00:54:23;6.63;;;4.00;;
67819;SDS011;54618;52.018;5.576;2022-11-20T00:56:48;5.78;;;3.95;;
67819;SDS011;54618;52.018;5.576;2022-11-20T00:59:14;6.53;;;4.03;;
67819;SDS011;54618;52.018;5.576;2022-11-20T01:01:39;6.95;;;4.35;;
67819;SDS011;54618;52.018;5.576;2022-11-20T01:04:05;7.30;;;4.38;;
67819;SDS011;54618;52.018;5.576;2022-11-20T01:08:58;6.22;;;4.00;;
67819;SDS011;54618;52.018;5.576;2022-11-20T01:11:25;6.57;;;3.95;;
67819;SDS011;54618;52.018;5.576;2022-11-20T01:13:53;6.40;;;4.28;;
67819;SDS011;54618;52.018;5.576;2022-11-20T01:16:24;6.88;;;4.00;;
67819;SDS011;54618;52.018;5.576;2022-11-20T01:18:53;6.60;;;4.45;;
67819;SDS011;54618;52.018;5.576;2022-11-20T01:21:22;6.57;;;4.20;;
67819;SDS011;54618;52.018;5.576;2022-11-20T01:23:50;7.10;;;4.40;;
67819;SDS011;54618;52.018;5.576;2022-11-20T01:26:16;6.78;;;4.45;;
67819;SDS011;54618;52.018;5.576;2022-11-20T01:28:46;6.95;;;4.50;;
67819;SDS011;54618;52.018;5.576;2022-11-20T01:31:14;8.25;;;4.47;;
67819;SDS011;54618;52.018;5.576;2022-11-20T01:33:41;6.80;;;4.68;;
67819;SDS011;54618;52.018;5.576;2022-11-20T01:36:08;7.05;;;4.38;;
67819;SDS011;54618;52.018;5.576;2022-11-20T01:38:34;6.25;;;4.43;;
67819;SDS011;54618;52.018;5.576;2022-11-20T01:41:00;6.22;;;4.25;;
67819;SDS011;54618;52.018;5.576;2022-11-20T01:43:25;8.35;;;5.22;;
67819;SDS011;54618;52.018;5.576;2022-11-20T01:45:56;6.50;;;4.25;;
67819;SDS011;54618;52.018;5.576;2022-11-20T01:48:29;7.38;;;4.57;;
67819;SDS011;54618;52.018;5.576;2022-11-20T01:51:25;8.38;;;5.00;;
67819;SDS011;54618;52.018;5.576;2022-11-20T01:54:08;8.23;;;4.82;;
67819;SDS011;54618;52.018;5.576;2022-11-20T01:56:40;7.70;;;4.72;;
67819;SDS011;54618;52.018;5.576;2022-11-20T01:59:09;7.32;;;5.00;;
67819;SDS011;54618;52.018;5.576;2022-11-20T02:01:37;7.10;;;4.80;;
67819;SDS011;54618;52.018;5.576;2022-11-20T02:04:04;7.63;;;4.78;;
67819;SDS011;54618;52.018;5.576;2022-11-20T02:06:31;8.43;;;4.80;;
67819;SDS011;54618;52.018;5.576;2022-11-20T02:09:01;8.23;;;5.10;;
67819;SDS011;54618;52.018;5.576;2022-11-20T02:11:26;8.38;;;5.30;;
67819;SDS011;54618;52.018;5.576;2022-11-20T02:13:52;8.23;;;4.97;;
67819;SDS011;54618;52.018;5.576;2022-11-20T02:16:25;6.90;;;4.80;;
67819;SDS011;54618;52.018;5.576;2022-11-20T02:18:54;7.80;;;5.32;;
67819;SDS011;54618;52.018;5.576;2022-11-20T02:21:37;7.85;;;5.30;;
67819;SDS011;54618;52.018;5.576;2022-11-20T02:24:21;11.07;;;5.30;;
67819;SDS011;54618;52.018;5.576;2022-11-20T02:26:54;7.70;;;5.10;;
67819;SDS011;54618;52.018;5.576;2022-11-20T02:29:30;7.82;;;5.22;;
67819;SDS011;54618;52.018;5.576;2022-11-20T02:32:02;8.48;;;5.18;;
67819;SDS011;54618;52.018;5.576;2022-11-20T02:34:28;7.82;;;4.95;;
67819;SDS011;54618;52.018;5.576;2022-11-20T02:36:54;9.05;;;5.30;;
67819;SDS011;54618;52.018;5.576;2022-11-20T02:39:20;9.73;;;5.18;;
67819;SDS011;54618;52.018;5.576;2022-11-20T02:41:50;6.45;;;4.88;;
67819;SDS011;54618;52.018;5.576;2022-11-20T02:44:20;8.60;;;5.00;;
67819;SDS011;54618;52.018;5.576;2022-11-20T02:46:46;6.30;;;4.70;;
67819;SDS011;54618;52.018;5.576;2022-11-20T02:49:11;8.40;;;5.30;;
67819;SDS011;54618;52.018;5.576;2022-11-20T02:51:37;8.10;;;5.18;;
67819;SDS011;54618;52.018;5.576;2022-11-20T02:54:03;7.63;;;4.68;;
67819;SDS011;54618;52.018;5.576;2022-11-20T02:56:29;6.95;;;4.72;;
67819;SDS011;54618;52.018;5.576;2022-11-20T02:58:55;7.70;;;5.13;;
67819;SDS011;54618;52.018;5.576;2022-11-20T03:01:20;7.60;;;4.95;;
67819;SDS011;54618;52.018;5.576;2022-11-20T03:03:46;8.00;;;4.90;;
67819;SDS011;54618;52.018;5.576;2022-11-20T03:06:13;9.00;;;4.82;;
67819;SDS011;54618;52.018;5.576;2022-11-20T03:08:39;7.55;;;5.07;;
67819;SDS011;54618;52.018;5.576;2022-11-20T03:11:05;7.60;;;4.97;;
67819;SDS011;54618;52.018;5.576;2022-11-20T03:13:32;7.13;;;4.85;;
67819;SDS011;54618;52.018;5.576;2022-11-20T03:15:57;7.68;;;4.97;;
67819;SDS011;54618;52.018;5.576;2022-11-20T03:18:23;7.78;;;4.68;;
67819;SDS011;54618;52.018;5.576;2022-11-20T03:20:48;7.25;;;4.75;;
67819;SDS011;54618;52.018;5.576;2022-11-20T03:23:14;7.13;;;4.82;;
67819;SDS011;54618;52.018;5.576;2022-11-20T03:25:39;7.18;;;4.82;;
67819;SDS011;54618;52.018;5.576;2022-11-20T03:28:05;8.07;;;5.10;;
67819;SDS011;54618;52.018;5.576;2022-11-20T03:30:30;7.68;;;5.00;;
67819;SDS011;54618;52.018;5.576;2022-11-20T03:32:56;7.35;;;5.10;;
67819;SDS011;54618;52.018;5.576;2022-11-20T03:35:21;9.52;;;5.38;;
67819;SDS011;54618;52.018;5.576;2022-11-20T03:37:47;7.40;;;5.07;;
67819;SDS011;54618;52.018;5.576;2022-11-20T03:40:13;7.63;;;4.90;;
67819;SDS011;54618;52.018;5.576;2022-11-20T03:42:38;7.72;;;4.95;;
67819;SDS011;54618;52.018;5.576;2022-11-20T03:45:10;7.70;;;5.07;;
67819;SDS011;54618;52.018;5.576;2022-11-20T03:47:36;7.10;;;4.70;;
67819;SDS011;54618;52.018;5.576;2022-11-20T03:50:01;6.93;;;4.68;;
67819;SDS011;54618;52.018;5.576;2022-11-20T03:52:28;7.07;;;4.65;;
67819;SDS011;54618;52.018;5.576;2022-11-20T03:54:53;6.55;;;4.80;;
67819;SDS011;54618;52.018;5.576;2022-11-20T03:57:19;8.02;;;4.85;;
67819;SDS011;54618;52.018;5.576;2022-11-20T03:59:44;6.28;;;4.78;;
67819;SDS011;54618;52.018;5.576;2022-11-20T04:02:09;7.80;;;4.95;;
67819;SDS011;54618;52.018;5.576;2022-11-20T04:04:35;7.57;;;5.03;;
67819;SDS011;54618;52.018;5.576;2022-11-20T04:07:00;8.15;;;4.85;;
67819;SDS011;54618;52.018;5.576;2022-11-20T04:09:26;8.40;;;5.10;;
67819;SDS011;54618;52.018;5.576;2022-11-20T04:11:52;8.07;;;5.28;;
67819;SDS011;54618;52.018;5.576;2022-11-20T04:14:17;8.73;;;5.30;;
67819;SDS011;54618;52.018;5.576;2022-11-20T04:16:43;7.18;;;4.78;;
67819;SDS011;54618;52.018;5.576;2022-11-20T04:19:10;8.57;;;5.10;;
67819;SDS011;54618;52.018;5.576;2022-11-20T04:21:37;7.57;;;4.72;;
67819;SDS011;54618;52.018;5.576;2022-11-20T04:24:03;6.78;;;4.75;;
67819;SDS011;54618;52.018;5.576;2022-11-20T04:26:29;8.05;;;5.07;;
67819;SDS011;54618;52.018;5.576;2022-11-20T04:28:55;8.13;;;5.22;;
67819;SDS011;54618;52.018;5.576;2022-11-20T04:31:22;7.50;;;4.78;;
67819;SDS011;54618;52.018;5.576;2022-11-20T04:33:49;7.45;;;4.78;;
67819;SDS011;54618;52.018;5.576;2022-11-20T04:36:23;7.22;;;4.95;;
67819;SDS011;54618;52.018;5.576;2022-11-20T04:38:51;8.25;;;4.72;;
67819;SDS011;54618;52.018;5.576;2022-11-20T04:41:18;7.43;;;5.10;;
67819;SDS011;54618;52.018;5.576;2022-11-20T04:43:52;7.30;;;5.03;;
67819;SDS011;54618;52.018;5.576;2022-11-20T04:46:24;7.97;;;4.93;;
67819;SDS011;54618;52.018;5.576;2022-11-20T04:48:50;7.60;;;5.10;;
67819;SDS011;54618;52.018;5.576;2022-11-20T04:51:16;6.70;;;4.63;;
67819;SDS011;54618;52.018;5.576;2022-11-20T04:53:41;7.30;;;4.82;;
67819;SDS011;54618;52.018;5.576;2022-11-20T04:56:08;7.20;;;4.90;;
67819;SDS011;54618;52.018;5.576;2022-11-20T04:58:37;7.60;;;5.20;;
67819;SDS011;54618;52.018;5.576;2022-11-20T05:01:04;7.38;;;4.68;;
67819;SDS011;54618;52.018;5.576;2022-11-20T05:03:40;7.38;;;4.88;;
67819;SDS011;54618;52.018;5.576;2022-11-20T05:06:07;7.95;;;5.18;;
67819;SDS011;54618;52.018;5.576;2022-11-20T05:08:34;7.15;;;4.68;;
67819;SDS011;54618;52.018;5.576;2022-11-20T05:11:04;6.25;;;4.07;;
67819;SDS011;54618;52.018;5.576;2022-11-20T05:13:31;7.55;;;4.90;;
67819;SDS011;54618;52.018;5.576;2022-11-20T05:16:00;7.88;;;5.10;;
67819;SDS011;54618;52.018;5.576;2022-11-20T05:18:27;7.55;;;5.07;;
67819;SDS011;54618;52.018;5.576;2022-11-20T05:20:56;6.85;;;4.25;;
67819;SDS011;54618;52.018;5.576;2022-11-20T05:23:23;6.43;;;4.25;;
67819;SDS011;54618;52.018;5.576;2022-11-20T05:25:51;7.35;;;4.57;;
67819;SDS011;54618;52.018;5.576;2022-11-20T05:28:18;7.60;;;4.78;;
67819;SDS011;54618;52.018;5.576;2022-11-20T05:30:44;6.15;;;4.43;;
67819;SDS011;54618;52.018;5.576;2022-11-20T05:33:09;8.43;;;4.80;;
67819;SDS011;54618;52.018;5.576;2022-11-20T05:35:35;7.28;;;4.80;;
67819;SDS011;54618;52.018;5.576;2022-11-20T05:38:00;6.97;;;4.80;;
67819;SDS011;54618;52.018;5.576;2022-11-20T05:40:26;6.47;;;4.60;;
67819;SDS011;54618;52.018;5.576;2022-11-20T05:42:51;6.80;;;4.28;;
67819;SDS011;54618;52.018;5.576;2022-11-20T05:45:17;6.80;;;4.63;;
67819;SDS011;54618;52.018;5.576;2022-11-20T05:47:42;5.68;;;4.55;;
67819;SDS011;54618;52.018;5.576;2022-11-20T05:50:08;7.03;;;4.40;;
67819;SDS011;54618;52.018;5.576;2022-11-20T05:52:33;7.13;;;4.85;;
67819;SDS011;54618;52.018;5.576;2022-11-20T05:54:59;6.57;;;4.43;;
67819;SDS011;54618;52.018;5.576;2022-11-20T05:57:24;7.10;;;4.90;;
67819;SDS011;54618;52.018;5.576;2022-11-20T05:59:50;7.57;;;4.78;;
67819;SDS011;54618;52.018;5.576;2022-11-20T06:02:15;7.25;;;4.55;;
67819;SDS011;54618;52.018;5.576;2022-11-20T06:04:41;8.25;;;4.85;;
67819;SDS011;54618;52.018;5.576;2022-11-20T06:07:06;7.47;;;4.80;;
67819;SDS011;54618;52.018;5.576;2022-11-20T06:09:32;7.30;;;4.60;;
67819;SDS011;54618;52.018;5.576;2022-11-20T06:11:58;7.75;;;4.70;;
67819;SDS011;54618;52.018;5.576;2022-11-20T06:14:23;7.35;;;4.80;;
67819;SDS011;54618;52.018;5.576;2022-11-20T06:16:49;8.13;;;4.60;;
67819;SDS011;54618;52.018;5.576;2022-11-20T06:19:14;8.23;;;4.93;;
67819;SDS011;54618;52.018;5.576;2022-11-20T06:21:40;7.72;;;4.75;;
67819;SDS011;54618;52.018;5.576;2022-11-20T06:24:06;8.13;;;4.75;;
67819;SDS011;54618;52.018;5.576;2022-11-20T06:26:33;7.47;;;4.57;;
67819;SDS011;54618;52.018;5.576;2022-11-20T06:28:59;6.78;;;4.63;;
67819;SDS011;54618;52.018;5.576;2022-11-20T06:31:25;5.82;;;4.50;;
67819;SDS011;54618;52.018;5.576;2022-11-20T06:33:51;8.68;;;4.80;;
67819;SDS011;54618;52.018;5.576;2022-11-20T06:36:17;6.35;;;4.25;;
67819;SDS011;54618;52.018;5.576;2022-11-20T06:38:44;6.38;;;4.65;;
67819;SDS011;54618;52.018;5.576;2022-11-20T06:41:11;7.85;;;4.82;;
67819;SDS011;54618;52.018;5.576;2022-11-20T06:43:38;7.90;;;5.15;;
67819;SDS011;54618;52.018;5.576;2022-11-20T06:46:03;8.07;;;4.85;;
67819;SDS011;54618;52.018;5.576;2022-11-20T06:48:29;7.63;;;4.63;;
67819;SDS011;54618;52.018;5.576;2022-11-20T06:50:55;7.55;;;4.70;;
67819;SDS011;54618;52.018;5.576;2022-11-20T06:53:21;6.95;;;4.40;;
67819;SDS011;54618;52.018;5.576;2022-11-20T06:55:47;6.50;;;4.65;;
67819;SDS011;54618;52.018;5.576;2022-11-20T06:58:15;6.55;;;4.57;;
67819;SDS011;54618;52.018;5.576;2022-11-20T07:00:42;7.45;;;4.57;;
67819;SDS011;54618;52.018;5.576;2022-11-20T07:03:08;7.68;;;4.88;;
67819;SDS011;54618;52.018;5.576;2022-11-20T07:05:35;7.22;;;4.50;;
67819;SDS011;54618;52.018;5.576;2022-11-20T07:08:02;7.03;;;4.78;;
67819;SDS011;54618;52.018;5.576;2022-11-20T07:10:28;7.28;;;4.53;;
67819;SDS011;54618;52.018;5.576;2022-11-20T07:12:54;7.70;;;4.88;;
67819;SDS011;54618;52.018;5.576;2022-11-20T07:15:20;7.00;;;4.75;;
67819;SDS011;54618;52.018;5.576;2022-11-20T07:17:47;8.10;;;4.53;;
67819;SDS011;54618;52.018;5.576;2022-11-20T07:20:13;7.82;;;4.82;;
67819;SDS011;54618;52.018;5.576;2022-11-20T07:22:39;9.10;;;4.38;;
67819;SDS011;54618;52.018;5.576;2022-11-20T07:25:06;7.82;;;4.47;;
67819;SDS011;54618;52.018;5.576;2022-11-20T07:27:32;6.55;;;4.53;;
67819;SDS011;54618;52.018;5.576;2022-11-20T07:29:59;7.00;;;4.60;;
67819;SDS011;54618;52.018;5.576;2022-11-20T07:32:24;7.00;;;4.65;;
67819;SDS011;54618;52.018;5.576;2022-11-20T07:34:50;7.07;;;5.03;;
67819;SDS011;54618;52.018;5.576;2022-11-20T07:37:15;6.85;;;4.72;;
67819;SDS011;54618;52.018;5.576;2022-11-20T07:39:41;7.85;;;4.57;;
67819;SDS011;54618;52.018;5.576;2022-11-20T07:42:07;6.68;;;4.65;;
67819;SDS011;54618;52.018;5.576;2022-11-20T07:44:33;6.95;;;4.63;;
67819;SDS011;54618;52.018;5.576;2022-11-20T07:46:59;6.55;;;4.90;;
67819;SDS011;54618;52.018;5.576;2022-11-20T07:49:24;6.88;;;4.53;;
67819;SDS011;54618;52.018;5.576;2022-11-20T07:51:50;6.78;;;4.55;;
67819;SDS011;54618;52.018;5.576;2022-11-20T07:54:16;7.03;;;4.50;;
67819;SDS011;54618;52.018;5.576;2022-11-20T07:56:41;6.53;;;4.60;;
67819;SDS011;54618;52.018;5.576;2022-11-20T07:59:07;8.45;;;4.50;;
67819;SDS011;54618;52.018;5.576;2022-11-20T08:01:33;6.30;;;4.57;;
67819;SDS011;54618;52.018;5.576;2022-11-20T08:03:58;7.05;;;4.70;;
67819;SDS011;54618;52.018;5.576;2022-11-20T08:06:24;7.80;;;4.80;;
67819;SDS011;54618;52.018;5.576;2022-11-20T08:08:49;8.25;;;4.90;;
67819;SDS011;54618;52.018;5.576;2022-11-20T08:11:15;7.68;;;4.75;;
67819;SDS011;54618;52.018;5.576;2022-11-20T08:13:59;7.05;;;4.40;;
67819;SDS011;54618;52.018;5.576;2022-11-20T08:16:37;6.18;;;4.43;;
67819;SDS011;54618;52.018;5.576;2022-11-20T08:19:07;5.68;;;4.10;;
67819;SDS011;54618;52.018;5.576;2022-11-20T08:21:33;8.07;;;4.78;;
67819;SDS011;54618;52.018;5.576;2022-11-20T08:23:58;7.07;;;4.90;;
67819;SDS011;54618;52.018;5.576;2022-11-20T08:26:25;7.13;;;4.40;;
67819;SDS011;54618;52.018;5.576;2022-11-20T08:28:54;6.75;;;4.63;;
67819;SDS011;54618;52.018;5.576;2022-11-20T08:31:21;6.80;;;4.70;;
67819;SDS011;54618;52.018;5.576;2022-11-20T08:33:47;6.88;;;4.63;;
67819;SDS011;54618;52.018;5.576;2022-11-20T08:36:12;7.70;;;4.57;;
67819;SDS011;54618;52.018;5.576;2022-11-20T08:38:38;6.45;;;4.30;;
67819;SDS011;54618;52.018;5.576;2022-11-20T08:41:04;6.70;;;4.35;;
67819;SDS011;54618;52.018;5.576;2022-11-20T08:43:48;6.35;;;4.53;;
67819;SDS011;54618;52.018;5.576;2022-11-20T08:46:15;6.88;;;4.75;;
67819;SDS011;54618;52.018;5.576;2022-11-20T08:48:41;7.30;;;4.60;;
67819;SDS011;54618;52.018;5.576;2022-11-20T08:51:07;5.72;;;4.07;;
67819;SDS011;54618;52.018;5.576;2022-11-20T08:53:32;6.80;;;4.30;;
67819;SDS011;54618;52.018;5.576;2022-11-20T08:55:58;8.40;;;5.00;;
67819;SDS011;54618;52.018;5.576;2022-11-20T08:58:24;6.93;;;4.70;;
67819;SDS011;54618;52.018;5.576;2022-11-20T09:00:50;7.20;;;4.78;;
67819;SDS011;54618;52.018;5.576;2022-11-20T09:03:16;7.00;;;4.85;;
67819;SDS011;54618;52.018;5.576;2022-11-20T09:05:41;7.57;;;4.82;;
67819;SDS011;54618;52.018;5.576;2022-11-20T09:08:08;7.55;;;4.60;;
67819;SDS011;54618;52.018;5.576;2022-11-20T09:10:33;7.75;;;4.30;;
67819;SDS011;54618;52.018;5.576;2022-11-20T09:12:59;6.55;;;4.65;;
67819;SDS011;54618;52.018;5.576;2022-11-20T09:15:25;7.53;;;4.70;;
67819;SDS011;54618;52.018;5.576;2022-11-20T09:20:24;6.65;;;4.53;;
67819;SDS011;54618;52.018;5.576;2022-11-20T09:22:50;6.22;;;4.20;;
67819;SDS011;54618;52.018;5.576;2022-11-20T09:25:16;6.60;;;4.35;;
67819;SDS011;54618;52.018;5.576;2022-11-20T09:27:42;6.55;;;4.50;;
67819;SDS011;54618;52.018;5.576;2022-11-20T09:30:09;7.28;;;4.53;;
67819;SDS011;54618;52.018;5.576;2022-11-20T09:32:35;6.75;;;4.38;;
67819;SDS011;54618;52.018;5.576;2022-11-20T09:35:01;6.25;;;4.38;;
67819;SDS011;54618;52.018;5.576;2022-11-20T09:37:27;6.60;;;4.20;;
67819;SDS011;54618;52.018;5.576;2022-11-20T09:39:52;6.25;;;4.43;;
67819;SDS011;54618;52.018;5.576;2022-11-20T09:48:13;6.00;;;4.20;;
67819;SDS011;54618;52.018;5.576;2022-11-20T09:50:49;6.05;;;4.40;;
67819;SDS011;54618;52.018;5.576;2022-11-20T09:56:06;6.03;;;4.30;;
67819;SDS011;54618;52.018;5.576;2022-11-20T09:58:38;6.22;;;4.40;;
67819;SDS011;54618;52.018;5.576;2022-11-20T10:01:20;6.20;;;4.22;;
67819;SDS011;54618;52.018;5.576;2022-11-20T10:03:58;6.50;;;4.30;;
67819;SDS011;54618;52.018;5.576;2022-11-20T10:06:37;6.72;;;4.55;;
67819;SDS011;54618;52.018;5.576;2022-11-20T10:28:10;6.40;;;4.57;;
67819;SDS011;54618;52.018;5.576;2022-11-20T10:31:00;6.03;;;4.28;;
67819;SDS011;54618;52.018;5.576;2022-11-20T10:33:32;6.68;;;4.60;;
67819;SDS011;54618;52.018;5.576;2022-11-20T10:36:06;7.35;;;4.90;;
67819;SDS011;54618;52.018;5.576;2022-11-20T10:38:43;6.15;;;4.78;;
67819;SDS011;54618;52.018;5.576;2022-11-20T10:41:15;7.10;;;4.90;;
67819;SDS011;54618;52.018;5.576;2022-11-20T10:43:56;7.38;;;4.93;;
67819;SDS011;54618;52.018;5.576;2022-11-20T10:49:21;6.60;;;4.63;;
67819;SDS011;54618;52.018;5.576;2022-11-20T10:51:57;7.07;;;4.57;;
67819;SDS011;54618;52.018;5.576;2022-11-20T10:57:16;8.50;;;5.20;;
67819;SDS011;54618;52.018;5.576;2022-11-20T11:00:04;7.03;;;4.88;;
67819;SDS011;54618;52.018;5.576;2022-11-20T11:02:34;6.72;;;4.80;;
67819;SDS011;54618;52.018;5.576;2022-11-20T11:05:17;8.88;;;5.10;;
67819;SDS011;54618;52.018;5.576;2022-11-20T11:07:50;6.63;;;4.57;;
67819;SDS011;54618;52.018;5.576;2022-11-20T11:10:29;6.60;;;4.68;;
67819;SDS011;54618;52.018;5.576;2022-11-20T11:13:02;7.82;;;5.13;;
67819;SDS011;54618;52.018;5.576;2022-11-20T11:15:30;7.53;;;4.72;;
67819;SDS011;54618;52.018;5.576;2022-11-20T11:18:09;7.10;;;4.82;;
67819;SDS011;54618;52.018;5.576;2022-11-20T11:20:35;6.77;;;4.93;;
67819;SDS011;54618;52.018;5.576;2022-11-20T11:23:01;8.38;;;5.50;;
67819;SDS011;54618;52.018;5.576;2022-11-20T11:25:34;6.90;;;4.60;;
67819;SDS011;54618;52.018;5.576;2022-11-20T11:28:17;9.00;;;5.28;;
67819;SDS011;54618;52.018;5.576;2022-11-20T11:30:45;7.28;;;5.25;;
67819;SDS011;54618;52.018;5.576;2022-11-20T11:33:26;8.02;;;5.55;;
67819;SDS011;54618;52.018;5.576;2022-11-20T11:35:54;7.95;;;5.72;;
67819;SDS011;54618;52.018;5.576;2022-11-20T11:38:35;8.45;;;5.82;;
67819;SDS011;54618;52.018;5.576;2022-11-20T11:41:03;11.07;;;6.22;;
67819;SDS011;54618;52.018;5.576;2022-11-20T11:43:34;9.65;;;6.10;;
67819;SDS011;54618;52.018;5.576;2022-11-20T11:48:58;10.73;;;6.80;;
67819;SDS011;54618;52.018;5.576;2022-11-20T11:51:44;8.25;;;5.72;;
67819;SDS011;54618;52.018;5.576;2022-11-20T11:54:20;9.63;;;6.18;;
67819;SDS011;54618;52.018;5.576;2022-11-20T11:57:00;9.20;;;6.25;;
67819;SDS011;54618;52.018;5.576;2022-11-20T11:59:43;9.63;;;6.20;;
67819;SDS011;54618;52.018;5.576;2022-11-20T12:02:24;10.18;;;6.43;;
67819;SDS011;54618;52.018;5.576;2022-11-20T12:04:57;11.18;;;6.10;;
67819;SDS011;54618;52.018;5.576;2022-11-20T12:07:41;11.93;;;6.10;;
67819;SDS011;54618;52.018;5.576;2022-11-20T12:13:33;11.95;;;6.88;;
67819;SDS011;54618;52.018;5.576;2022-11-20T12:16:07;10.68;;;6.53;;
67819;SDS011;54618;52.018;5.576;2022-11-20T12:18:38;14.60;;;7.57;;
67819;SDS011;54618;52.018;5.576;2022-11-20T12:35:33;14.32;;;6.47;;
67819;SDS011;54618;52.018;5.576;2022-11-20T12:38:45;16.10;;;6.68;;
67819;SDS011;54618;52.018;5.576;2022-11-20T12:56:01;11.90;;;6.25;;
67819;SDS011;54618;52.018;5.576;2022-11-20T12:58:53;12.70;;;6.47;;
67819;SDS011;54618;52.018;5.576;2022-11-20T13:01:35;12.90;;;7.20;;
67819;SDS011;54618;52.018;5.576;2022-11-20T13:04:48;10.13;;;6.25;;
67819;SDS011;54618;52.018;5.576;2022-11-20T13:07:37;12.27;;;6.28;;
67819;SDS011;54618;52.018;5.576;2022-11-20T13:10:03;15.88;;;6.55;;
67819;SDS011;54618;52.018;5.576;2022-11-20T13:12:40;11.30;;;6.80;;
67819;SDS011;54618;52.018;5.576;2022-11-20T13:17:59;11.50;;;6.30;;
67819;SDS011;54618;52.018;5.576;2022-11-20T13:20:26;12.20;;;6.78;;
67819;SDS011;54618;52.018;5.576;2022-11-20T13:22:55;11.02;;;6.28;;
67819;SDS011;54618;52.018;5.576;2022-11-20T13:25:28;12.00;;;6.45;;
67819;SDS011;54618;52.018;5.576;2022-11-20T13:27:59;13.82;;;7.15;;
67819;SDS011;54618;52.018;5.576;2022-11-20T13:30:48;13.10;;;6.40;;
67819;SDS011;54618;52.018;5.576;2022-11-20T13:36:02;11.68;;;6.65;;
67819;SDS011;54618;52.018;5.576;2022-11-20T13:38:40;10.90;;;6.78;;
67819;SDS011;54618;52.018;5.576;2022-11-20T13:41:11;11.90;;;5.95;;
67819;SDS011;54618;52.018;5.576;2022-11-20T13:43:54;9.88;;;6.63;;
67819;SDS011;54618;52.018;5.576;2022-11-20T13:46:39;10.68;;;6.53;;
67819;SDS011;54618;52.018;5.576;2022-11-20T13:49:09;12.85;;;6.45;;
67819;SDS011;54618;52.018;5.576;2022-11-20T13:51:46;11.98;;;6.13;;
67819;SDS011;54618;52.018;5.576;2022-11-20T14:02:39;12.95;;;7.10;;
67819;SDS011;54618;52.018;5.576;2022-11-20T14:05:06;12.05;;;6.85;;
67819;SDS011;54618;52.018;5.576;2022-11-20T14:07:44;11.80;;;6.95;;
67819;SDS011;54618;52.018;5.576;2022-11-20T14:12:52;9.30;;;6.18;;
67819;SDS011;54618;52.018;5.576;2022-11-20T14:15:25;12.27;;;6.90;;
67819;SDS011;54618;52.018;5.576;2022-11-20T14:17:53;11.02;;;6.25;;
67819;SDS011;54618;52.018;5.576;2022-11-20T14:20:19;12.07;;;6.63;;
67819;SDS011;54618;52.018;5.576;2022-11-20T14:22:50;11.55;;;6.47;;
67819;SDS011;54618;52.018;5.576;2022-11-20T14:27:43;11.45;;;6.50;;
67819;SDS011;54618;52.018;5.576;2022-11-20T14:30:22;11.25;;;6.78;;
67819;SDS011;54618;52.018;5.576;2022-11-20T14:32:49;11.40;;;6.55;;
67819;SDS011;54618;52.018;5.576;2022-11-20T14:35:26;11.35;;;6.70;;
67819;SDS011;54618;52.018;5.576;2022-11-20T14:37:54;10.00;;;6.18;;
67819;SDS011;54618;52.018;5.576;2022-11-20T14:42:49;11.52;;;6.30;;
67819;SDS011;54618;52.018;5.576;2022-11-20T14:45:14;11.13;;;7.00;;
67819;SDS011;54618;52.018;5.576;2022-11-20T14:47:41;11.80;;;6.72;;
67819;SDS011;54618;52.018;5.576;2022-11-20T14:50:28;10.63;;;6.65;;
67819;SDS011;54618;52.018;5.576;2022-11-20T14:52:58;10.15;;;6.55;;
67819;SDS011;54618;52.018;5.576;2022-11-20T14:55:31;9.63;;;6.35;;
67819;SDS011;54618;52.018;5.576;2022-11-20T14:58:02;10.13;;;6.40;;
67819;SDS011;54618;52.018;5.576;2022-11-20T15:00:29;12.90;;;6.95;;
67819;SDS011;54618;52.018;5.576;2022-11-20T15:02:56;12.63;;;7.10;;
67819;SDS011;54618;52.018;5.576;2022-11-20T15:05:26;11.43;;;6.90;;
67819;SDS011;54618;52.018;5.576;2022-11-20T15:08:11;10.75;;;6.80;;
67819;SDS011;54618;52.018;5.576;2022-11-20T15:10:38;11.10;;;6.88;;
67819;SDS011;54618;52.018;5.576;2022-11-20T15:13:11;10.35;;;6.70;;
67819;SDS011;54618;52.018;5.576;2022-11-20T15:15:44;10.68;;;6.68;;
67819;SDS011;54618;52.018;5.576;2022-11-20T15:18:16;12.02;;;7.18;;
67819;SDS011;54618;52.018;5.576;2022-11-20T15:20:47;9.52;;;5.95;;
67819;SDS011;54618;52.018;5.576;2022-11-20T15:23:14;11.43;;;6.82;;
67819;SDS011;54618;52.018;5.576;2022-11-20T15:25:42;10.82;;;6.28;;
67819;SDS011;54618;52.018;5.576;2022-11-20T15:28:30;10.75;;;6.85;;
67819;SDS011;54618;52.018;5.576;2022-11-20T15:30:54;12.20;;;6.70;;
67819;SDS011;54618;52.018;5.576;2022-11-20T15:33:21;10.30;;;6.60;;
67819;SDS011;54618;52.018;5.576;2022-11-20T15:35:46;11.57;;;7.32;;
67819;SDS011;54618;52.018;5.576;2022-11-20T15:38:12;10.40;;;6.50;;
67819;SDS011;54618;52.018;5.576;2022-11-20T15:40:38;12.18;;;7.20;;
67819;SDS011;54618;52.018;5.576;2022-11-20T15:43:03;13.35;;;7.38;;
67819;SDS011;54618;52.018;5.576;2022-11-20T15:45:39;12.82;;;7.20;;
67819;SDS011;54618;52.018;5.576;2022-11-20T15:48:17;11.20;;;6.78;;
67819;SDS011;54618;52.018;5.576;2022-11-20T15:51:02;11.45;;;6.80;;
67819;SDS011;54618;52.018;5.576;2022-11-20T15:53:34;11.75;;;6.95;;
67819;SDS011;54618;52.018;5.576;2022-11-20T15:55:59;14.00;;;7.30;;
67819;SDS011;54618;52.018;5.576;2022-11-20T15:58:25;10.95;;;7.03;;
67819;SDS011;54618;52.018;5.576;2022-11-20T16:00:51;11.57;;;6.72;;
67819;SDS011;54618;52.018;5.576;2022-11-20T16:03:17;11.48;;;7.53;;
67819;SDS011;54618;52.018;5.576;2022-11-20T16:05:43;12.30;;;7.18;;
67819;SDS011;54618;52.018;5.576;2022-11-20T16:08:09;11.60;;;7.03;;
67819;SDS011;54618;52.018;5.576;2022-11-20T16:10:35;11.45;;;6.88;;
67819;SDS011;54618;52.018;5.576;2022-11-20T16:13:01;12.88;;;7.32;;
67819;SDS011;54618;52.018;5.576;2022-11-20T16:15:52;11.52;;;6.65;;
67819;SDS011;54618;52.018;5.576;2022-11-20T16:18:22;12.38;;;7.35;;
67819;SDS011;54618;52.018;5.576;2022-11-20T16:20:48;11.82;;;7.07;;
67819;SDS011;54618;52.018;5.576;2022-11-20T16:23:16;11.70;;;7.03;;
67819;SDS011;54618;52.018;5.576;2022-11-20T16:25:42;11.75;;;7.00;;
67819;SDS011;54618;52.018;5.576;2022-11-20T16:28:08;10.55;;;6.25;;
67819;SDS011;54618;52.018;5.576;2022-11-20T16:30:34;12.52;;;6.97;;
67819;SDS011;54618;52.018;5.576;2022-11-20T16:33:00;11.00;;;7.03;;